Scroll down
FLIGHT INFORMATION
Lufthansa

DLH7K

At Arrival Gate

EDDF
 LEPA
DATE: 2021-02-02
GATE: B46
GATE DEPARTURE: 12:06
TAKEOFF: 12:18
DATE: 2021-02-02
GATE:  -
LANDING: 13:56
GATE ARRIVAL: 14:00
FLIGHT DATA
Crew: 
Speed: 
911 kph
Altitude: 
39,009 ft
Stage Length: 
1,252.1 km
Block Time: 
1.8 hrs
Flight Time: 
1.6 hrs
Fuel Used: 
10,895 kg
Cleared Route: EDDF RID ANEKI NEKLO BADLI PABLA HERBI MOPAN OLBEN LUTIX BENOT NEMOS GVA BALSI KOTIT RETNO DOTIG GIROL TUPOX MTG DIVKO VATIR PIVUS MAROT VERSO LUNIK D357T CDP RW24L
TRACK DATA
50,000 ft 1,000 kts
AIRCRAFT INFO AND CUMULATIVE STATS
Aircraft Type: 
B77L
Registration: 
SELCAL: 
MSN/LN: 
0 / 1
Operator: 
Total Flights: 
2
Total Block Time: 
3.9 hrs
Total Flight Time: 
3.5 hrs
Total Fuel Used: 
22,883 kg
DATALINK LOG | Newest first | Current as of: 2022-10-05 22:50:55
LABEL SEQUENCE CONTENT Dn/Up
QD021014:00 17.8▼ Dn
QC580813:56▼ Dn
2U3156LEPA 021300Z 23011KT 200V270 9999 FEW020 18/13 Q1015 NOSIG▲ Up
2S3242LEPA▼ Dn
QB193112:18▼ Dn
QA082512:06 41.9▼ Dn
A30628CLEARED TO LEPA VIA ANEK9L ANEKI Y163 HERBI Y164 OLBEN UN869 NEMOS GVA BALSI UN852 VERSO UL129 LUNIK LUNI2P. SQUAWK 1432.▲ Up
2U0557EDDF 021120Z VRB02KT 2600 DZ FEW001 SCT004 BKN005 07/06 Q1001 TEMPO 3500 -DZ▲ Up
2S0626EDDF▼ Dn
B30618EDDF LEPA EDDF I ▼ Dn
Q05002[LINK ACK]▲ Up
Q05002[LINK TEST]▼ Dn


AIRCRAFT HISTORY
FLIGHT DATE FLIGHT NO. ORIGIN DESTINATION CLEARED ROUTE BLOCK TIME FLIGHT TIME FUEL USED PILOT
2021-02-02DLH11JLEPA EDDF LEPA PITUX XURAL PTCNB MHN MEROS LAPIT CHELY LUMAS MEBEL NETUP TURIL MAXIR LUSOL BODRU OKTET IRMAR BLONA KINES VANAS MOBLO UBIMA MOLUS SOSAL TELNO KORED KONOL BERSU SUREP DITON ZUE SONOM LADOL EMPAX NELLI KOVAN KISEK XINLA XORBO ADNIS SPESA CHA DF606 DF610 DF611 DF612 DF613 DF614 DF615 DF616 DF626 RW25L2.1 hrs1.9 hrs26,430 lbEmanuel Hagen
2021-02-02DLH7KEDDF LEPA EDDF RID ANEKI NEKLO BADLI PABLA HERBI MOPAN OLBEN LUTIX BENOT NEMOS GVA BALSI KOTIT RETNO DOTIG GIROL TUPOX MTG DIVKO VATIR PIVUS MAROT VERSO LUNIK D357T CDP RW24L1.8 hrs1.6 hrs24,019 lbEmanuel Hagen